createdAt,value
2019-03-15T00:01:41.751Z,5.63
2019-03-15T00:04:11.238Z,5.59
2019-03-15T00:06:40.527Z,5.57
2019-03-15T00:09:09.986Z,5.56
2019-03-15T00:11:39.223Z,5.50
2019-03-15T00:14:08.591Z,5.50
2019-03-15T00:16:37.945Z,5.50
2019-03-15T00:19:07.188Z,5.50
2019-03-15T00:21:36.448Z,5.46
2019-03-15T00:24:05.690Z,5.48
2019-03-15T00:26:34.971Z,5.44
2019-03-15T00:29:04.316Z,5.40
2019-03-15T00:31:33.577Z,5.36
2019-03-15T00:34:02.847Z,5.37
2019-03-15T00:36:32.084Z,5.35
2019-03-15T00:39:01.344Z,5.28
2019-03-15T00:41:30.589Z,5.30
2019-03-15T00:43:59.839Z,5.24
2019-03-15T00:46:29.072Z,5.24
2019-03-15T00:48:58.391Z,5.19
2019-03-15T00:51:27.631Z,5.22
2019-03-15T00:53:56.875Z,5.18
2019-03-15T00:56:26.127Z,5.22
2019-03-15T00:58:55.394Z,5.20
2019-03-15T01:01:24.682Z,5.23
2019-03-15T01:03:53.915Z,5.17
2019-03-15T01:06:23.249Z,5.15
2019-03-15T01:08:52.484Z,5.12
2019-03-15T01:11:21.765Z,5.09
2019-03-15T01:13:51.017Z,5.04
2019-03-15T01:16:20.292Z,5.01
2019-03-15T01:18:49.651Z,4.93
2019-03-15T01:21:18.947Z,4.92
2019-03-15T01:23:48.515Z,4.90
2019-03-15T01:26:17.773Z,4.88
2019-03-15T01:28:47.051Z,4.81
2019-03-15T01:31:16.362Z,4.84
2019-03-15T01:33:45.601Z,4.86
2019-03-15T01:36:14.886Z,4.89
2019-03-15T01:38:48.442Z,4.88
2019-03-15T01:41:17.693Z,4.94
2019-03-15T01:43:51.454Z,4.93
2019-03-15T01:46:26.776Z,4.89
2019-03-15T01:48:56.516Z,4.90
2019-03-15T01:51:25.827Z,4.95
2019-03-15T01:53:55.110Z,4.90
2019-03-15T01:56:24.485Z,4.94
2019-03-15T01:58:54.018Z,4.96
2019-03-15T02:01:23.304Z,4.90
2019-03-15T02:03:52.545Z,4.94
2019-03-15T02:06:21.809Z,4.92
2019-03-15T02:08:51.192Z,4.95
2019-03-15T02:11:20.517Z,4.93
2019-03-15T02:13:49.790Z,4.91
2019-03-15T02:16:19.131Z,4.92
2019-03-15T02:18:48.379Z,4.92
2019-03-15T02:21:18.455Z,4.99
2019-03-15T02:23:48.872Z,5.05
2019-03-15T02:26:18.152Z,5.08
2019-03-15T02:28:47.527Z,5.07
2019-03-15T02:31:16.792Z,5.11
2019-03-15T02:33:46.097Z,5.15
2019-03-15T02:36:15.325Z,5.19
2019-03-15T02:38:44.624Z,5.22
2019-03-15T02:41:13.883Z,5.22
2019-03-15T02:43:43.136Z,5.16
2019-03-15T02:46:12.800Z,5.18
2019-03-15T02:48:44.376Z,5.18
2019-03-15T02:51:13.639Z,5.14
2019-03-15T02:53:42.929Z,5.09
2019-03-15T02:56:12.167Z,5.08
2019-03-15T02:58:41.444Z,5.07
2019-03-15T03:01:11.598Z,5.10
2019-03-15T03:03:40.928Z,5.11
2019-03-15T03:06:10.165Z,5.07
2019-03-15T03:08:40.598Z,5.10
2019-03-15T03:11:10.546Z,5.13
2019-03-15T03:13:39.779Z,5.11
2019-03-15T03:16:09.050Z,5.12
2019-03-15T03:18:38.328Z,5.10
2019-03-15T03:21:07.575Z,5.17
2019-03-15T03:23:36.884Z,5.24
2019-03-15T03:26:06.144Z,5.28
2019-03-15T03:28:35.486Z,5.35
2019-03-15T03:31:04.913Z,5.43
2019-03-15T03:33:34.251Z,5.47
2019-03-15T03:36:03.477Z,5.48
2019-03-15T03:38:32.708Z,5.46
2019-03-15T03:41:01.978Z,5.37
2019-03-15T03:43:31.246Z,5.40
2019-03-15T03:46:00.478Z,5.43
2019-03-15T03:48:29.750Z,5.50
2019-03-15T03:51:00.150Z,5.49
2019-03-15T03:53:29.612Z,5.56
2019-03-15T03:55:58.846Z,5.57
2019-03-15T03:58:28.076Z,5.64
2019-03-15T04:00:57.342Z,5.72
2019-03-15T04:03:26.572Z,5.74
2019-03-15T04:05:56.393Z,5.84
2019-03-15T04:08:25.632Z,5.81
2019-03-15T04:10:54.881Z,5.86
2019-03-15T04:13:24.138Z,5.89
2019-03-15T04:15:53.400Z,5.90
2019-03-15T04:18:22.683Z,5.88
2019-03-15T04:20:51.993Z,5.92
2019-03-15T04:23:21.255Z,5.91
2019-03-15T04:25:50.501Z,5.91
2019-03-15T04:28:19.757Z,5.93
2019-03-15T04:30:48.994Z,5.90
2019-03-15T04:33:18.247Z,5.95
2019-03-15T04:35:47.501Z,5.97
2019-03-15T04:38:16.746Z,5.93
2019-03-15T04:40:46.014Z,5.97
2019-03-15T04:43:15.251Z,5.97
2019-03-15T04:45:44.501Z,5.98
2019-03-15T04:48:13.799Z,6.02
2019-03-15T04:50:43.049Z,6.01
2019-03-15T04:53:12.315Z,6.03
2019-03-15T04:55:41.586Z,6.03
2019-03-15T04:58:10.858Z,6.01
2019-03-15T05:00:40.091Z,6.03
2019-03-15T05:03:09.364Z,6.10
2019-03-15T05:05:38.622Z,6.08
2019-03-15T05:08:07.876Z,6.07
2019-03-15T05:10:37.106Z,6.07
2019-03-15T05:13:06.367Z,6.14
2019-03-15T05:15:35.654Z,6.18
2019-03-15T05:18:04.901Z,6.14
2019-03-15T05:20:34.184Z,6.09
2019-03-15T05:23:03.419Z,6.12
2019-03-15T05:25:32.709Z,6.11
2019-03-15T05:28:01.970Z,6.10
2019-03-15T05:30:31.222Z,6.10
2019-03-15T05:33:00.526Z,6.07
2019-03-15T05:35:29.776Z,6.07
2019-03-15T05:37:59.042Z,6.08
2019-03-15T05:40:28.280Z,6.02
2019-03-15T05:42:57.555Z,6.06
2019-03-15T05:45:26.794Z,6.00
2019-03-15T05:47:56.037Z,6.02
2019-03-15T05:50:25.270Z,6.08
2019-03-15T05:52:56.941Z,6.06
2019-03-15T05:55:26.186Z,5.99
2019-03-15T05:57:55.437Z,5.93
2019-03-15T06:00:24.701Z,5.97
2019-03-15T06:02:53.954Z,5.99
2019-03-15T06:05:23.183Z,6.03
2019-03-15T06:07:52.520Z,6.03
2019-03-15T06:10:21.770Z,5.94
2019-03-15T06:12:51.042Z,6.00
2019-03-15T06:15:20.329Z,6.03
2019-03-15T06:17:49.576Z,5.98
2019-03-15T06:20:18.860Z,5.92
2019-03-15T06:22:48.118Z,6.03
2019-03-15T06:25:17.458Z,6.02
2019-03-15T06:27:46.925Z,6.10
2019-03-15T06:30:16.608Z,6.11
2019-03-15T06:32:46.304Z,6.09
2019-03-15T06:35:16.011Z,6.09
2019-03-15T06:37:45.678Z,6.15
2019-03-15T06:40:15.482Z,6.16
2019-03-15T06:42:45.136Z,6.19
2019-03-15T06:45:14.646Z,6.26
2019-03-15T06:47:44.405Z,6.23
2019-03-15T06:50:13.958Z,6.24
2019-03-15T06:52:43.559Z,6.28
2019-03-15T06:55:13.059Z,6.35
2019-03-15T06:57:42.945Z,6.39
2019-03-15T07:00:12.829Z,6.40
2019-03-15T07:02:42.093Z,6.44
2019-03-15T07:05:12.627Z,6.39
2019-03-15T07:07:42.023Z,6.47
2019-03-15T07:10:11.316Z,6.50
2019-03-15T07:12:40.999Z,6.53
2019-03-15T07:15:10.440Z,6.55
2019-03-15T07:17:39.760Z,6.49
2019-03-15T07:20:10.228Z,6.55
2019-03-15T07:22:39.460Z,6.53
2019-03-15T07:25:09.259Z,6.65
2019-03-15T07:27:42.012Z,6.63
2019-03-15T07:30:11.064Z,6.73
2019-03-15T07:32:40.341Z,6.70
2019-03-15T07:35:09.714Z,6.68
2019-03-15T07:37:39.037Z,6.69
2019-03-15T07:40:08.787Z,6.76
2019-03-15T07:42:38.012Z,6.73
2019-03-15T07:45:07.337Z,6.76
2019-03-15T07:47:36.591Z,6.74
2019-03-15T07:50:07.292Z,6.72
2019-03-15T07:52:36.521Z,6.81
2019-03-15T07:55:06.035Z,6.74
2019-03-15T07:57:35.339Z,6.75
2019-03-15T08:00:05.235Z,6.64
2019-03-15T08:02:34.516Z,6.60
2019-03-15T08:05:03.863Z,6.42
2019-03-15T08:07:37.382Z,6.46
2019-03-15T08:10:04.126Z,6.51
2019-03-15T08:12:33.406Z,6.48
2019-03-15T08:15:02.640Z,6.50
2019-03-15T08:17:31.862Z,6.45
2019-03-15T08:20:03.284Z,6.45
2019-03-15T08:22:32.645Z,6.51
2019-03-15T08:25:01.950Z,6.58
2019-03-15T08:27:31.206Z,6.55
2019-03-15T08:30:00.511Z,6.51
2019-03-15T08:32:29.768Z,6.55
2019-03-15T08:34:59.136Z,6.45
2019-03-15T08:37:28.426Z,6.41
2019-03-15T08:39:57.663Z,6.34
2019-03-15T08:42:26.987Z,6.41
2019-03-15T08:44:56.223Z,6.44
2019-03-15T08:47:28.039Z,6.48
2019-03-15T08:49:57.292Z,6.50
2019-03-15T08:52:26.579Z,6.43
2019-03-15T08:55:05.159Z,6.43
2019-03-15T08:57:26.913Z,6.46
2019-03-15T08:59:57.714Z,6.46
2019-03-15T09:02:27.299Z,6.42
2019-03-15T09:04:56.560Z,6.44
2019-03-15T09:07:25.890Z,6.49
2019-03-15T09:09:55.150Z,6.57
2019-03-15T09:12:24.434Z,6.55
2019-03-15T09:14:53.773Z,6.56
2019-03-15T09:17:23.006Z,6.57
2019-03-15T09:19:52.307Z,6.70
2019-03-15T09:22:21.912Z,6.61
2019-03-15T09:24:51.099Z,6.55
2019-03-15T09:27:20.390Z,6.60
2019-03-15T09:29:49.644Z,6.65
2019-03-15T09:32:18.905Z,6.66
2019-03-15T09:34:48.170Z,6.66
2019-03-15T09:37:17.450Z,6.63
2019-03-15T09:39:46.685Z,6.62
2019-03-15T09:42:33.168Z,6.52
2019-03-15T09:45:02.413Z,6.40
2019-03-15T09:47:32.167Z,6.37
2019-03-15T09:50:01.468Z,6.34
2019-03-15T09:52:30.744Z,6.36
2019-03-15T09:55:00.165Z,6.27
2019-03-15T09:57:29.614Z,6.23
2019-03-15T09:59:58.917Z,6.14
2019-03-15T10:02:30.659Z,6.08
2019-03-15T10:05:10.147Z,6.03
2019-03-15T10:07:38.552Z,6.06
2019-03-15T10:10:12.803Z,5.97
2019-03-15T10:12:32.126Z,5.96
2019-03-15T10:15:01.433Z,5.99
2019-03-15T10:17:30.720Z,6.02
2019-03-15T10:19:59.993Z,6.03
2019-03-15T10:22:30.120Z,6.05
2019-03-15T10:24:59.377Z,6.11
2019-03-15T10:27:28.990Z,6.00
2019-03-15T10:29:58.812Z,5.99
2019-03-15T10:32:28.018Z,5.91
2019-03-15T10:34:57.282Z,6.11
2019-03-15T10:37:26.571Z,6.19
2019-03-15T10:39:55.850Z,6.03
2019-03-15T10:42:25.183Z,6.02
2019-03-15T10:44:54.480Z,6.07
2019-03-15T10:47:23.722Z,6.22
2019-03-15T10:49:53.083Z,6.35
2019-03-15T10:52:22.357Z,6.31
2019-03-15T10:54:51.594Z,6.09
2019-03-15T10:57:20.852Z,6.35
2019-03-15T10:59:50.085Z,6.23
2019-03-15T11:02:19.358Z,6.31
2019-03-15T11:04:48.711Z,6.40
2019-03-15T11:07:17.963Z,6.49
2019-03-15T11:09:49.139Z,6.64
2019-03-15T11:12:18.472Z,6.61
2019-03-15T11:14:47.710Z,6.39
2019-03-15T11:17:16.996Z,6.41
2019-03-15T11:19:46.278Z,6.27
2019-03-15T11:22:15.579Z,6.55
2019-03-15T11:24:44.866Z,6.55
2019-03-15T11:27:14.142Z,6.54
2019-03-15T11:29:43.410Z,6.74
2019-03-15T11:32:13.160Z,6.75
2019-03-15T11:34:42.583Z,6.83
2019-03-15T11:37:12.000Z,6.84
2019-03-15T11:39:41.274Z,6.88
2019-03-15T11:42:10.528Z,6.77
2019-03-15T11:44:39.810Z,6.78
2019-03-15T11:47:09.997Z,6.84
2019-03-15T11:49:39.361Z,6.84
2019-03-15T11:52:08.670Z,6.79
2019-03-15T11:54:37.906Z,6.76
2019-03-15T11:57:07.201Z,6.74
2019-03-15T11:59:36.624Z,6.75
2019-03-15T12:02:05.933Z,6.80
2019-03-15T12:04:35.192Z,6.85
2019-03-15T12:07:04.905Z,6.78
2019-03-15T12:09:34.174Z,7.05
2019-03-15T12:12:03.412Z,7.08
2019-03-15T12:14:40.746Z,7.07
2019-03-15T12:17:03.677Z,7.01
2019-03-15T12:19:32.916Z,7.01
2019-03-15T12:22:06.543Z,7.12
2019-03-15T12:24:33.246Z,7.31
2019-03-15T12:27:02.577Z,7.26
2019-03-15T12:29:31.820Z,7.41
2019-03-15T12:32:01.104Z,7.40
2019-03-15T12:34:30.351Z,7.46
2019-03-15T12:36:59.606Z,7.56
2019-03-15T12:39:28.864Z,7.62
2019-03-15T12:41:58.129Z,7.72
2019-03-15T12:44:27.355Z,7.78
2019-03-15T12:46:56.614Z,7.93
2019-03-15T12:49:25.943Z,8.00
2019-03-15T12:51:55.187Z,8.05
2019-03-15T12:54:24.425Z,8.18
2019-03-15T12:56:54.266Z,8.25
2019-03-15T12:59:23.559Z,8.28
2019-03-15T13:01:52.844Z,8.45
2019-03-15T13:04:22.087Z,8.47
2019-03-15T13:06:51.329Z,8.57
2019-03-15T13:09:20.591Z,8.70
2019-03-15T13:11:49.827Z,8.76
2019-03-15T13:14:19.103Z,8.83
2019-03-15T13:16:48.342Z,8.80
2019-03-15T13:19:17.597Z,8.97
2019-03-15T13:21:46.865Z,9.00
2019-03-15T13:24:16.096Z,9.05
2019-03-15T13:26:45.386Z,9.15
2019-03-15T13:29:14.620Z,9.19
2019-03-15T13:31:43.876Z,9.23
2019-03-15T13:34:13.572Z,9.33
2019-03-15T13:36:42.835Z,9.38
2019-03-15T13:39:12.078Z,9.42
2019-03-15T13:41:41.337Z,9.47
2019-03-15T13:44:10.723Z,9.55
2019-03-15T13:46:40.023Z,9.61
2019-03-15T13:49:09.281Z,9.68
2019-03-15T13:51:38.512Z,9.77
2019-03-15T13:54:07.802Z,9.85
2019-03-15T13:56:37.053Z,9.92
2019-03-15T13:59:06.286Z,9.97
2019-03-15T14:01:35.549Z,10.07
2019-03-15T14:04:04.789Z,10.08
2019-03-15T14:06:34.054Z,10.10
2019-03-15T14:09:03.293Z,10.15
2019-03-15T14:11:32.552Z,10.15
2019-03-15T14:14:01.804Z,10.18
2019-03-15T14:16:31.038Z,10.13
2019-03-15T14:19:00.371Z,10.09
2019-03-15T14:21:29.569Z,10.04
2019-03-15T14:23:58.863Z,10.09
2019-03-15T14:26:28.184Z,10.12
2019-03-15T14:28:57.444Z,10.18
2019-03-15T14:31:26.726Z,10.21
2019-03-15T14:33:55.975Z,10.22
2019-03-15T14:36:25.239Z,10.28
2019-03-15T14:38:54.570Z,10.28
2019-03-15T14:41:23.999Z,10.33
2019-03-15T14:43:53.248Z,10.34
2019-03-15T14:46:22.483Z,10.29
2019-03-15T14:48:51.745Z,10.34
2019-03-15T14:51:21.038Z,10.34
2019-03-15T14:53:50.314Z,10.38
2019-03-15T14:56:19.571Z,10.41
2019-03-15T14:58:48.851Z,10.43
2019-03-15T15:01:18.140Z,10.43
2019-03-15T15:03:47.409Z,10.50
2019-03-15T15:06:16.643Z,10.49
2019-03-15T15:08:45.882Z,10.51
2019-03-15T15:11:15.151Z,10.43
2019-03-15T15:13:44.411Z,10.37
2019-03-15T15:16:13.716Z,10.36
2019-03-15T15:18:42.966Z,10.31
2019-03-15T15:21:12.319Z,10.28
2019-03-15T15:23:41.576Z,10.25
2019-03-15T15:26:10.887Z,10.24
2019-03-15T15:28:40.152Z,10.26
2019-03-15T15:31:09.457Z,10.33
2019-03-15T15:33:38.695Z,10.43
2019-03-15T15:36:07.999Z,10.49
2019-03-15T15:38:37.247Z,10.48
2019-03-15T15:41:06.504Z,10.53
2019-03-15T15:43:35.783Z,10.53
2019-03-15T15:46:05.033Z,10.54
2019-03-15T15:48:34.300Z,10.54
2019-03-15T15:51:04.135Z,10.56
2019-03-15T15:53:33.397Z,10.54
2019-03-15T15:56:02.761Z,10.52
2019-03-15T15:58:32.022Z,10.48
2019-03-15T16:01:01.293Z,10.48
2019-03-15T16:03:30.610Z,10.44
2019-03-15T16:05:59.879Z,10.34
2019-03-15T16:08:29.161Z,10.33
2019-03-15T16:10:58.433Z,10.35
2019-03-15T16:13:27.723Z,10.34
2019-03-15T16:15:57.001Z,10.34
2019-03-15T16:18:26.929Z,10.32
2019-03-15T16:20:56.300Z,10.28
2019-03-15T16:23:25.521Z,10.17
2019-03-15T16:25:54.796Z,10.07
2019-03-15T16:28:31.354Z,9.93
2019-03-15T16:30:55.065Z,9.94
2019-03-15T16:33:29.349Z,9.89
2019-03-15T16:35:58.648Z,9.91
2019-03-15T16:38:27.906Z,9.91
2019-03-15T16:40:57.138Z,9.91
2019-03-15T16:43:26.394Z,9.94
2019-03-15T16:45:55.737Z,9.95
2019-03-15T16:48:25.006Z,9.97
2019-03-15T16:50:54.287Z,10.03
2019-03-15T16:53:23.642Z,10.07
2019-03-15T16:55:52.898Z,10.11
2019-03-15T16:58:22.262Z,10.16
2019-03-15T17:00:51.608Z,10.11
2019-03-15T17:03:20.953Z,10.18
2019-03-15T17:05:50.270Z,10.20
2019-03-15T17:08:19.628Z,10.20
2019-03-15T17:10:48.941Z,10.24
2019-03-15T17:13:18.181Z,10.24
2019-03-15T17:15:47.454Z,10.28
2019-03-15T17:18:17.229Z,10.29
2019-03-15T17:20:46.522Z,10.31
2019-03-15T17:23:15.829Z,10.30
2019-03-15T17:25:45.454Z,10.29
2019-03-15T17:28:15.376Z,10.32
2019-03-15T17:30:44.678Z,10.32
2019-03-15T17:33:13.983Z,10.31
2019-03-15T17:35:43.645Z,10.29
2019-03-15T17:38:12.966Z,10.32
2019-03-15T17:40:42.305Z,10.33
2019-03-15T17:43:11.695Z,10.30
2019-03-15T17:45:40.961Z,10.33
2019-03-15T17:48:10.315Z,10.31
2019-03-15T17:50:39.644Z,10.30
2019-03-15T17:53:09.316Z,10.28
2019-03-15T17:55:38.578Z,10.30
2019-03-15T17:58:08.586Z,10.29
2019-03-15T18:00:40.006Z,10.27
2019-03-15T18:03:20.638Z,10.28
2019-03-15T18:05:43.048Z,10.23
2019-03-15T18:08:13.295Z,10.22
2019-03-15T18:10:42.821Z,10.18
2019-03-15T18:13:12.089Z,10.13
2019-03-15T18:15:41.357Z,10.05
2019-03-15T18:18:10.638Z,10.02
2019-03-15T18:20:39.961Z,10.04
2019-03-15T18:23:11.317Z,10.01
2019-03-15T18:25:40.616Z,10.11
2019-03-15T18:28:09.869Z,10.16
2019-03-15T18:30:39.201Z,10.16
2019-03-15T18:33:08.476Z,10.19
2019-03-15T18:35:37.773Z,10.26
2019-03-15T18:38:07.517Z,10.33
2019-03-15T18:40:36.849Z,10.35
2019-03-15T18:43:06.145Z,10.39
2019-03-15T18:45:35.517Z,10.38
2019-03-15T18:48:04.917Z,10.43
2019-03-15T18:50:34.187Z,10.41
2019-03-15T18:53:03.530Z,10.42
2019-03-15T18:55:32.785Z,10.41
2019-03-15T18:58:02.056Z,10.43
2019-03-15T19:00:31.380Z,10.49
2019-03-15T19:03:00.659Z,10.51
2019-03-15T19:05:29.929Z,10.46
2019-03-15T19:07:59.219Z,10.51
2019-03-15T19:10:28.531Z,10.50
2019-03-15T19:12:57.796Z,10.55
2019-03-15T19:15:27.070Z,10.54
2019-03-15T19:17:57.132Z,10.51
2019-03-15T19:20:29.126Z,10.49
2019-03-15T19:22:58.769Z,10.42
2019-03-15T19:25:28.075Z,10.39
2019-03-15T19:27:57.417Z,10.35
2019-03-15T19:30:27.561Z,10.35
2019-03-15T19:32:56.905Z,10.29
2019-03-15T19:35:26.188Z,10.27
2019-03-15T19:37:55.715Z,10.24
2019-03-15T19:40:25.000Z,10.24
2019-03-15T19:42:54.715Z,10.26
2019-03-15T19:45:24.310Z,10.19
2019-03-15T19:47:53.679Z,10.16
2019-03-15T19:50:23.297Z,10.15
2019-03-15T19:52:52.571Z,10.12
2019-03-15T19:55:21.855Z,10.12
2019-03-15T19:57:51.151Z,10.13
2019-03-15T20:00:20.474Z,10.13
2019-03-15T20:02:49.739Z,10.13
2019-03-15T20:05:19.619Z,10.16
2019-03-15T20:07:48.978Z,10.15
2019-03-15T20:10:18.509Z,10.17
2019-03-15T20:12:47.812Z,10.11
2019-03-15T20:15:17.206Z,10.12
2019-03-15T20:17:46.863Z,10.12
2019-03-15T20:20:16.149Z,10.13
2019-03-15T20:22:45.455Z,10.18
2019-03-15T20:25:14.772Z,10.18
2019-03-15T20:27:44.058Z,10.16
2019-03-15T20:30:21.043Z,10.19
2019-03-15T20:32:47.295Z,10.17
2019-03-15T20:35:17.584Z,10.18
2019-03-15T20:37:47.319Z,10.18
2019-03-15T20:40:16.589Z,10.22
2019-03-15T20:42:45.911Z,10.22
2019-03-15T20:45:15.542Z,10.22
2019-03-15T20:47:45.119Z,10.29
2019-03-15T20:50:14.413Z,10.35
2019-03-15T20:52:43.655Z,10.36
2019-03-15T20:55:12.931Z,10.38
2019-03-15T20:57:42.171Z,10.41
2019-03-15T21:00:13.303Z,10.42
2019-03-15T21:02:42.579Z,10.46
2019-03-15T21:05:11.929Z,10.48
2019-03-15T21:07:43.458Z,10.49
2019-03-15T21:10:12.369Z,10.41
2019-03-15T21:12:41.602Z,10.40
2019-03-15T21:15:11.257Z,10.43
2019-03-15T21:17:40.494Z,10.52
2019-03-15T21:20:10.755Z,10.49
2019-03-15T21:22:42.472Z,10.55
2019-03-15T21:25:11.925Z,10.57
2019-03-15T21:27:52.895Z,10.59
2019-03-15T21:30:14.262Z,10.60
2019-03-15T21:32:43.549Z,10.63
2019-03-15T21:35:13.026Z,10.64
2019-03-15T21:37:42.325Z,10.58
2019-03-15T21:40:11.867Z,10.57
2019-03-15T21:42:41.087Z,10.51
2019-03-15T21:45:10.848Z,10.45
2019-03-15T21:47:40.131Z,10.49
2019-03-15T21:50:10.972Z,10.48
2019-03-15T21:52:40.245Z,10.49
2019-03-15T21:55:09.509Z,10.44
2019-03-15T21:57:38.769Z,10.43
2019-03-15T22:00:09.504Z,10.40
2019-03-15T22:02:38.752Z,10.42
2019-03-15T22:05:08.556Z,10.45
2019-03-15T22:07:37.825Z,10.42
2019-03-15T22:10:07.793Z,10.41
2019-03-15T22:12:37.069Z,10.41
2019-03-15T22:15:07.424Z,10.51
2019-03-15T22:17:36.874Z,10.52
2019-03-15T22:20:06.770Z,10.53
2019-03-15T22:22:35.998Z,10.56
2019-03-15T22:25:05.450Z,10.61
2019-03-15T22:27:34.706Z,10.54
2019-03-15T22:30:04.456Z,10.53
2019-03-15T22:32:33.710Z,10.49
2019-03-15T22:35:02.978Z,10.52
2019-03-15T22:37:32.343Z,10.51
2019-03-15T22:40:01.571Z,10.54
2019-03-15T22:42:31.023Z,10.57
2019-03-15T22:45:00.403Z,10.57
2019-03-15T22:47:29.709Z,10.56
2019-03-15T22:49:58.978Z,10.57
2019-03-15T22:52:28.215Z,10.57
2019-03-15T22:54:57.512Z,10.54
2019-03-15T22:57:26.866Z,10.57
2019-03-15T22:59:56.090Z,10.59
2019-03-15T23:02:25.398Z,10.59
2019-03-15T23:04:54.707Z,10.62
2019-03-15T23:07:23.966Z,10.63
2019-03-15T23:09:53.241Z,10.65
2019-03-15T23:12:22.633Z,10.67
2019-03-15T23:14:51.897Z,10.65
2019-03-15T23:17:21.190Z,10.64
2019-03-15T23:19:50.460Z,10.67
2019-03-15T23:22:19.700Z,10.66
2019-03-15T23:24:48.927Z,10.67
2019-03-15T23:27:35.013Z,10.68
2019-03-15T23:30:03.042Z,10.68
2019-03-15T23:32:32.313Z,10.70
2019-03-15T23:35:01.589Z,10.68
2019-03-15T23:37:30.872Z,10.71
2019-03-15T23:40:00.410Z,10.72
2019-03-15T23:42:29.657Z,10.72
2019-03-15T23:44:58.945Z,10.71
2019-03-15T23:47:28.200Z,10.71
2019-03-15T23:49:57.455Z,10.68
2019-03-15T23:52:26.702Z,10.61
2019-03-15T23:54:55.971Z,10.61
2019-03-15T23:57:25.212Z,10.61
2019-03-15T23:59:54.467Z,10.53
